• Join FlightAware (Why Join?)
  • Login
  • US Flag 
08:47AM EDT


 

Airport Tracker/Info


-or-


 

Live Flight TrackerFlight Track Log ✈ N8558W ✈ 30-Jul-2014 ✈ T94 - KGKY

Flight Track Log - Related Links

Times and Time Zones

All times are in EDT time to prevent confusion due to time zone crossing. See the N8558W flight status page for this flight to view local times or setup timezone preferences in your user account.

Time Position Orientation Groundspeed Altitude Reporting Facility
EDT Latitude Longitude Course Direction KTS MPH feet Rate Location/Type
10:22AM 29.1661 -97.8244 19° North 131 151 5,500  Level Houston Center
10:23AM 29.2028 -97.8128 16° North 136 157 5,600 120 Climbing Houston Center
10:24AM 29.2439 -97.8028 12° North 140 161 5,800 60 Climbing Houston Center
10:25AM 29.2806 -97.7939 12° North 136 157 5,800 -60 Level Houston Center
10:26AM 29.3200 -97.7872 North 137 158 5,700 -60 Descending Houston Center
10:27AM 29.8157 -98.3447 19° North  Level FlightAware Approximate
10:27AM 29.3592 -97.7800 North 139 160 5,700  Level Houston Center
10:28AM 29.3967 -97.7714 11° North 139 160 5,700  Level Houston Center
10:29AM 29.4433 -97.7592 13° North 139 160 5,700  Level Houston Center
10:30AM 29.4817 -97.7481 14° North 139 160 5,700  Level Houston Center
10:31AM 29.5175 -97.7358 17° North 139 160 5,700 -60 Level Houston Center
10:32AM 29.5542 -97.7228 17° North 139 160 5,600  Descending Houston Center
10:33AM 29.5931 -97.7131 12° North 139 160 5,700  Climbing Houston Center
10:34AM 29.6306 -97.7033 13° North 139 160 5,700 -60 Level Houston Center
10:35AM 29.6758 -97.6944 10° North 139 160 5,600  Descending Houston Center
10:36AM 29.7133 -97.6872 North 139 160 5,700  Climbing Houston Center
10:37AM 29.7503 -97.6819 North 137 158 5,700  Level Houston Center
10:38AM 29.7881 -97.6758 North 137 158 5,800  Climbing Houston Center
10:39AM 29.8300 -97.6694 North 136 157 5,700  Descending Houston Center
10:41AM 29.8700 -97.6603 11° North 137 158 5,800  Climbing Houston Center
10:42AM 29.9083 -97.6522 10° North 136 157 5,800  Level Houston Center
10:43AM 29.9494 -97.6439 10° North 137 158 5,800 -120 Level Houston Center
10:44AM 29.9886 -97.6358 10° North 140 161 5,600 -240 Descending Houston Center
10:45AM 30.0314 -97.6292 North 144 166 5,400 -120 Descending Houston Center
10:46AM 30.0631 -97.6208 13° North 141 162 5,400  Level Houston Center
10:47AM 30.1019 -97.6142 North 139 160 5,400  Level Houston Center
10:48AM 30.1461 -97.6036 12° North 138 159 5,500  Climbing Houston Center
10:49AM 30.1817 -97.5928 15° North 135 155 5,500  Level Houston Center
10:50AM 30.2192 -97.5844 11° North 135 155 5,500  Level Houston Center
10:51AM 30.2575 -97.5778 North 136 157 5,600  Climbing Houston Center
10:52AM 30.2958 -97.5736 North 136 157 5,500 -60 Descending Houston Center
10:53AM 30.3411 -97.5644 10° North 136 157 5,500  Level Houston Center
10:54AM 30.3792 -97.5583 North 136 157 5,500  Level Houston Center
10:55AM 30.4169 -97.5494 11° North 136 157 5,500  Level Houston Center
10:56AM 30.4547 -97.5442 North 136 157 5,500  Level Houston Center
10:57AM 30.4928 -97.5400 North 137 158 5,500  Level Houston Center
10:58AM 30.5311 -97.5356 North 137 158 5,500  Level Houston Center
10:59AM 30.5756 -97.5286 North 137 158 5,500  Level Houston Center
11:00AM 30.6128 -97.5244 North 136 157 5,500  Level Houston Center
11:01AM 30.6511 -97.5178 North 136 157 5,500  Level Houston Center
11:02AM 30.6897 -97.5114 North 137 158 5,500  Level Houston Center
11:03AM 30.7281 -97.5044 North 137 158 5,500  Level Houston Center
11:04AM 30.7647 -97.4936 14° North 137 158 5,500  Level Houston Center
11:05AM 30.8083 -97.4847 10° North 137 158 5,500  Level Houston Center
11:06AM 30.8458 -97.4753 12° North 136 157 5,500  Level Houston Center
11:07AM 30.8831 -97.4656 13° North 136 157 5,500  Level Houston Center
11:08AM 30.9056 -97.4614 North 137 158 5,500  Level Fort Worth Center
11:09AM 30.9456 -97.4592 North 138 159 5,500  Level Fort Worth Center
11:10AM 30.9806 -97.4531 North 137 158 5,500  Level Fort Worth Center
11:10AM 30.9825 -97.4525 14° North 137 158 5,500  Level Fort Worth Center
11:11AM 31.0219 -97.4464 North 136 157 5,500  Level Fort Worth Center
11:12AM 31.0661 -97.4358 12° North 137 158 5,500  Level Fort Worth Center
11:13AM 31.0978 -97.4286 11° North 140 161 5,500  Level Fort Worth Center
11:13AM 31.1044 -97.4272 10° North 137 158 5,500  Level Fort Worth Center
11:14AM 31.1369 -97.4197 11° North 138 159 5,500  Level Fort Worth Center
11:14AM 31.1419 -97.4183 13° North 137 158 5,500  Level Fort Worth Center
11:15AM 31.1761 -97.4131 North 137 158 5,500  Level Fort Worth Center
11:16AM 31.2133 -97.4067 North 138 159 5,500  Level Fort Worth Center
11:16AM 31.2178 -97.4047 21° North 137 158 5,500  Level Fort Worth Center
11:17AM 31.2553 -97.4003 North 137 158 5,500 -60 Level Fort Worth Center
11:18AM 31.2953 -97.3981 North 143 165 5,400 -120 Descending Fort Worth Center
11:18AM 31.3033 -97.3967 North 138 159 5,400 60 Level Fort Worth Center
11:20AM 31.3417 -97.3886 10° North 138 159 5,500  Climbing Fort Worth Center
11:21AM 31.3789 -97.3806 10° North 138 159 5,500 -60 Level Fort Worth Center
11:22AM 31.4164 -97.3714 12° North 137 158 5,400 -60 Descending Fort Worth Center
11:22AM 31.4431 -97.3650 12° North 138 159 5,400  Level Fort Worth Center
11:23AM 31.4550 -97.3619 12° North 139 160 5,400 -120 Level Fort Worth Center
11:24AM 31.5003 -97.3558 North 139 160 5,300 -60 Descending Fort Worth Center
11:25AM 31.5383 -97.3456 13° North 139 160 5,300  Level Fort Worth Center
11:26AM 31.5753 -97.3353 13° North 139 160 5,400 60 Climbing Fort Worth Center
11:26AM 31.5956 -97.3336 North 137 158 5,400  Level Fort Worth Center
11:27AM 31.6131 -97.3278 16° North 139 160 5,400 60 Level Fort Worth Center
11:28AM 31.6511 -97.3214 North 139 160 5,500  Climbing Fort Worth Center
11:29AM 31.6897 -97.3175 North 139 160 5,500  Level Fort Worth Center
11:30AM 31.7339 -97.2992 19° North 139 160 5,500  Level Fort Worth Center
11:30AM 31.7489 -97.2919 22° Northeast 140 161 5,500  Level Fort Worth Center
11:31AM 31.7714 -97.2836 17° North 139 160 5,500 -60 Level Fort Worth Center
11:32AM 31.8094 -97.2725 14° North 140 161 5,400 -60 Descending Fort Worth Center
11:33AM 31.8472 -97.2614 14° North 140 161 5,400  Level Fort Worth Center
11:34AM 31.8858 -97.2492 15° North 140 161 5,400 -120 Level Fort Worth Center
11:34AM 31.9000 -97.2481 North 141 162 5,300 -120 Descending Fort Worth Center
11:35AM 31.9250 -97.2436 North 140 161 5,300 60 Level Fort Worth Center
11:36AM 31.9711 -97.2336 10° North 141 162 5,500 60 Climbing Fort Worth Center
11:37AM 32.0122 -97.2275 North 139 160 5,500  Level Fort Worth Center
11:38AM 32.0519 -97.2239 North 143 165 5,500 -60 Level Fort Worth Center
11:39AM 32.0944 -97.2169 North 143 165 5,400 -120 Descending Fort Worth Center
11:40AM 32.1350 -97.2036 16° North 148 170 5,300 -120 Descending Fort Worth Center
11:41AM 32.1772 -97.1889 16° North 147 169 5,200 -180 Descending Fort Worth Center
11:42AM 32.2117 -97.1769 16° North 147 169 5,000 -360 Descending Fort Worth Center
11:43AM 32.2619 -97.1608 15° North 151 174 4,500 -480 Descending Fort Worth Center
11:44AM 32.3050 -97.1517 10° North 154 177 4,100 -360 Descending Fort Worth Center
11:45AM 32.3514 -97.1492 North 154 177 3,800 -360 Descending Fort Worth Center
11:46AM 32.3936 -97.1444 North 153 176 3,400 -420 Descending Fort Worth Center
11:47AM 32.4353 -97.1344 11° North 153 176 3,000 -420 Descending Fort Worth Center
11:49AM 32.4783 -97.1236 12° North 151 174 2,600 -240 Descending Fort Worth Center
11:50AM 32.5144 -97.1167 North 138 159 2,500 -60 Descending Fort Worth Center
11:51AM 32.5536 -97.1047 14° North 136 157 2,500  Level Fort Worth Center
11:52AM 32.5919 -97.1094 354° North 139 160 2,500 -180 Level Fort Worth Center
11:53AM 32.6336 -97.1142 355° North 139 160 2,200 -480 Descending Fort Worth Center
11:54AM 32.6697 -97.1208 351° North 134 154 1,600 -480 Descending Fort Worth Center
11:55AM 32.6903 -97.1056 32° Northeast 99 114 1,200 -360 Descending Fort Worth Center
11:56AM 32.6694 -97.0969 161° South 92 106 900 -300 Descending Fort Worth Center